sensor_id;sensor_type;location;lat;lon;timestamp;temperature;humidity
53254;DHT22;39148;53.332;6.922;2023-02-15T00:00:33;8.80;93.80
53254;DHT22;39148;53.332;6.922;2023-02-15T00:02:59;8.80;93.10
53254;DHT22;39148;53.332;6.922;2023-02-15T00:07:51;8.80;93.90
53254;DHT22;39148;53.332;6.922;2023-02-15T00:15:09;8.70;93.10
53254;DHT22;39148;53.332;6.922;2023-02-15T00:17:36;8.60;93.80
53254;DHT22;39148;53.332;6.922;2023-02-15T00:27:20;8.70;93.90
53254;DHT22;39148;53.332;6.922;2023-02-15T00:29:47;8.70;94.10
53254;DHT22;39148;53.332;6.922;2023-02-15T00:32:13;8.70;93.80
53254;DHT22;39148;53.332;6.922;2023-02-15T00:34:38;8.70;93.90
53254;DHT22;39148;53.332;6.922;2023-02-15T00:44:22;8.60;93.90
53254;DHT22;39148;53.332;6.922;2023-02-15T00:46:48;8.60;93.20
53254;DHT22;39148;53.332;6.922;2023-02-15T00:51:39;8.50;93.90
53254;DHT22;39148;53.332;6.922;2023-02-15T00:58:57;8.40;93.10
53254;DHT22;39148;53.332;6.922;2023-02-15T01:01:23;8.50;93.80
53254;DHT22;39148;53.332;6.922;2023-02-15T01:06:16;8.60;93.90
53254;DHT22;39148;53.332;6.922;2023-02-15T01:08:46;8.50;93.00
53254;DHT22;39148;53.332;6.922;2023-02-15T01:11:15;8.30;93.80
53254;DHT22;39148;53.332;6.922;2023-02-15T01:13:50;8.40;94.00
53254;DHT22;39148;53.332;6.922;2023-02-15T01:16:17;8.50;92.90
53254;DHT22;39148;53.332;6.922;2023-02-15T01:21:14;8.50;93.00
53254;DHT22;39148;53.332;6.922;2023-02-15T01:23:40;8.30;93.10
53254;DHT22;39148;53.332;6.922;2023-02-15T01:33:25;8.40;93.80
53254;DHT22;39148;53.332;6.922;2023-02-15T01:35:58;8.30;92.40
53254;DHT22;39148;53.332;6.922;2023-02-15T01:38:24;8.30;93.80
53254;DHT22;39148;53.332;6.922;2023-02-15T01:40:53;8.30;93.90
53254;DHT22;39148;53.332;6.922;2023-02-15T01:43:19;8.30;93.90
53254;DHT22;39148;53.332;6.922;2023-02-15T01:45:47;8.30;93.80
53254;DHT22;39148;53.332;6.922;2023-02-15T01:48:22;8.40;93.90
53254;DHT22;39148;53.332;6.922;2023-02-15T01:50:54;8.30;93.00
53254;DHT22;39148;53.332;6.922;2023-02-15T01:53:24;8.30;93.10
53254;DHT22;39148;53.332;6.922;2023-02-15T01:55:57;8.30;93.90
53254;DHT22;39148;53.332;6.922;2023-02-15T01:58:26;8.20;93.00
53254;DHT22;39148;53.332;6.922;2023-02-15T02:00:53;8.30;93.70
53254;DHT22;39148;53.332;6.922;2023-02-15T02:03:50;8.20;93.10
53254;DHT22;39148;53.332;6.922;2023-02-15T02:06:13;8.00;93.90
53254;DHT22;39148;53.332;6.922;2023-02-15T02:08:39;8.20;93.80
53254;DHT22;39148;53.332;6.922;2023-02-15T02:11:14;8.10;93.90
53254;DHT22;39148;53.332;6.922;2023-02-15T02:13:42;8.20;93.80
53254;DHT22;39148;53.332;6.922;2023-02-15T02:16:20;8.20;93.10
53254;DHT22;39148;53.332;6.922;2023-02-15T02:35:16;8.10;92.90
53254;DHT22;39148;53.332;6.922;2023-02-15T02:43:11;8.20;93.00
53254;DHT22;39148;53.332;6.922;2023-02-15T02:45:44;8.00;93.00
53254;DHT22;39148;53.332;6.922;2023-02-15T02:48:16;8.00;93.00
53254;DHT22;39148;53.332;6.922;2023-02-15T02:50:43;8.00;93.10
53254;DHT22;39148;53.332;6.922;2023-02-15T02:53:09;7.90;93.80
53254;DHT22;39148;53.332;6.922;2023-02-15T02:58:25;8.00;93.10
53254;DHT22;39148;53.332;6.922;2023-02-15T03:03:42;8.00;93.10
53254;DHT22;39148;53.332;6.922;2023-02-15T03:06:17;8.10;93.90
53254;DHT22;39148;53.332;6.922;2023-02-15T03:08:47;8.00;93.10
53254;DHT22;39148;53.332;6.922;2023-02-15T03:11:14;7.90;93.90
53254;DHT22;39148;53.332;6.922;2023-02-15T03:16:09;8.00;93.00
53254;DHT22;39148;53.332;6.922;2023-02-15T03:19:03;7.80;93.90
53254;DHT22;39148;53.332;6.922;2023-02-15T03:24:21;7.90;92.50
53254;DHT22;39148;53.332;6.922;2023-02-15T03:26:50;7.90;93.00
53254;DHT22;39148;53.332;6.922;2023-02-15T03:29:21;7.90;93.00
53254;DHT22;39148;53.332;6.922;2023-02-15T03:31:53;7.80;93.80
53254;DHT22;39148;53.332;6.922;2023-02-15T03:34:20;7.90;93.90
53254;DHT22;39148;53.332;6.922;2023-02-15T03:37:18;7.90;92.60
53254;DHT22;39148;53.332;6.922;2023-02-15T03:45:55;7.80;93.80
53254;DHT22;39148;53.332;6.922;2023-02-15T03:50:57;7.90;93.00
53254;DHT22;39148;53.332;6.922;2023-02-15T03:53:43;7.70;93.90
53254;DHT22;39148;53.332;6.922;2023-02-15T03:56:10;7.70;93.10
53254;DHT22;39148;53.332;6.922;2023-02-15T03:58:36;7.80;93.30
53254;DHT22;39148;53.332;6.922;2023-02-15T04:04:37;7.80;93.90
53254;DHT22;39148;53.332;6.922;2023-02-15T04:07:05;7.70;93.10
53254;DHT22;39148;53.332;6.922;2023-02-15T04:09:31;7.70;93.80
53254;DHT22;39148;53.332;6.922;2023-02-15T04:17:27;7.70;93.80
53254;DHT22;39148;53.332;6.922;2023-02-15T04:22:37;7.60;93.80
53254;DHT22;39148;53.332;6.922;2023-02-15T04:25:22;7.70;93.90
53254;DHT22;39148;53.332;6.922;2023-02-15T04:27:53;7.70;93.00
53254;DHT22;39148;53.332;6.922;2023-02-15T04:37:39;7.70;93.80
53254;DHT22;39148;53.332;6.922;2023-02-15T04:40:06;7.70;93.00
53254;DHT22;39148;53.332;6.922;2023-02-15T04:42:32;7.60;93.90
53254;DHT22;39148;53.332;6.922;2023-02-15T04:44:58;7.60;93.80
53254;DHT22;39148;53.332;6.922;2023-02-15T04:54:45;7.60;93.80
53254;DHT22;39148;53.332;6.922;2023-02-15T04:57:11;7.80;93.90
53254;DHT22;39148;53.332;6.922;2023-02-15T05:02:03;7.70;93.90
53254;DHT22;39148;53.332;6.922;2023-02-15T05:11:47;7.60;93.10
53254;DHT22;39148;53.332;6.922;2023-02-15T05:19:05;7.50;93.80
53254;DHT22;39148;53.332;6.922;2023-02-15T05:21:31;7.50;92.70
53254;DHT22;39148;53.332;6.922;2023-02-15T05:26:24;7.60;92.80
53254;DHT22;39148;53.332;6.922;2023-02-15T05:29:09;7.50;92.90
53254;DHT22;39148;53.332;6.922;2023-02-15T05:31:35;7.50;93.90
53254;DHT22;39148;53.332;6.922;2023-02-15T05:34:01;7.50;93.90
53254;DHT22;39148;53.332;6.922;2023-02-15T05:38:54;7.50;93.90
53254;DHT22;39148;53.332;6.922;2023-02-15T05:41:20;7.50;93.90
53254;DHT22;39148;53.332;6.922;2023-02-15T05:46:12;7.40;93.90
53254;DHT22;39148;53.332;6.922;2023-02-15T05:51:09;7.30;93.90
53254;DHT22;39148;53.332;6.922;2023-02-15T05:53:37;7.40;93.00
53254;DHT22;39148;53.332;6.922;2023-02-15T05:56:05;7.40;93.00
53254;DHT22;39148;53.332;6.922;2023-02-15T05:58:33;7.50;93.20
53254;DHT22;39148;53.332;6.922;2023-02-15T06:00:59;7.40;93.20
53254;DHT22;39148;53.332;6.922;2023-02-15T06:05:58;7.40;93.90
53254;DHT22;39148;53.332;6.922;2023-02-15T06:08:23;7.40;93.90
53254;DHT22;39148;53.332;6.922;2023-02-15T06:10:49;7.30;93.90
53254;DHT22;39148;53.332;6.922;2023-02-15T06:18:07;7.30;93.20
53254;DHT22;39148;53.332;6.922;2023-02-15T06:20:32;7.30;93.80
53254;DHT22;39148;53.332;6.922;2023-02-15T06:25:24;7.30;93.80
53254;DHT22;39148;53.332;6.922;2023-02-15T06:27:50;7.30;93.80
53254;DHT22;39148;53.332;6.922;2023-02-15T06:30:16;7.30;93.20
53254;DHT22;39148;53.332;6.922;2023-02-15T06:32:41;7.30;93.90
53254;DHT22;39148;53.332;6.922;2023-02-15T06:35:07;7.30;93.10
53254;DHT22;39148;53.332;6.922;2023-02-15T06:44:51;7.40;93.90
53254;DHT22;39148;53.332;6.922;2023-02-15T06:49:43;7.20;93.90
53254;DHT22;39148;53.332;6.922;2023-02-15T06:57:00;7.30;93.90
53254;DHT22;39148;53.332;6.922;2023-02-15T07:01:52;7.30;93.80
53254;DHT22;39148;53.332;6.922;2023-02-15T07:11:38;7.20;93.90
53254;DHT22;39148;53.332;6.922;2023-02-15T07:14:22;7.20;93.20
53254;DHT22;39148;53.332;6.922;2023-02-15T07:16:48;7.20;93.90
53254;DHT22;39148;53.332;6.922;2023-02-15T07:33:51;7.20;93.80
53254;DHT22;39148;53.332;6.922;2023-02-15T07:36:16;7.20;93.90
53254;DHT22;39148;53.332;6.922;2023-02-15T07:41:10;7.20;93.00
53254;DHT22;39148;53.332;6.922;2023-02-15T07:43:42;7.20;93.00
53254;DHT22;39148;53.332;6.922;2023-02-15T07:46:14;7.20;93.90
53254;DHT22;39148;53.332;6.922;2023-02-15T07:48:41;7.10;93.90
53254;DHT22;39148;53.332;6.922;2023-02-15T07:51:08;7.00;93.80
53254;DHT22;39148;53.332;6.922;2023-02-15T07:53:35;7.10;93.80
53254;DHT22;39148;53.332;6.922;2023-02-15T07:56:03;6.90;93.90
53254;DHT22;39148;53.332;6.922;2023-02-15T08:11:18;7.00;93.10
53254;DHT22;39148;53.332;6.922;2023-02-15T08:13:56;7.00;93.00
53254;DHT22;39148;53.332;6.922;2023-02-15T08:16:47;7.10;93.00
53254;DHT22;39148;53.332;6.922;2023-02-15T08:24:06;7.00;93.90
53254;DHT22;39148;53.332;6.922;2023-02-15T08:28:59;7.00;93.90
53254;DHT22;39148;53.332;6.922;2023-02-15T08:31:26;7.00;93.80
53254;DHT22;39148;53.332;6.922;2023-02-15T08:33:53;7.10;93.80
53254;DHT22;39148;53.332;6.922;2023-02-15T08:36:22;7.00;93.80
53254;DHT22;39148;53.332;6.922;2023-02-15T08:38:48;7.00;93.90
53254;DHT22;39148;53.332;6.922;2023-02-15T08:41:17;7.10;93.00
53254;DHT22;39148;53.332;6.922;2023-02-15T08:43:45;7.00;92.90
53254;DHT22;39148;53.332;6.922;2023-02-15T08:46:13;7.10;93.00
53254;DHT22;39148;53.332;6.922;2023-02-15T08:48:39;7.10;93.90
53254;DHT22;39148;53.332;6.922;2023-02-15T08:51:11;7.10;93.80
53254;DHT22;39148;53.332;6.922;2023-02-15T08:56:04;6.90;93.80
53254;DHT22;39148;53.332;6.922;2023-02-15T08:58:29;7.20;93.20
53254;DHT22;39148;53.332;6.922;2023-02-15T09:08:15;7.00;94.00
53254;DHT22;39148;53.332;6.922;2023-02-15T09:10:40;6.90;93.80
53254;DHT22;39148;53.332;6.922;2023-02-15T09:15:32;7.10;93.80
53254;DHT22;39148;53.332;6.922;2023-02-15T09:17:58;7.00;93.80
53254;DHT22;39148;53.332;6.922;2023-02-15T09:20:32;7.00;93.90
53254;DHT22;39148;53.332;6.922;2023-02-15T09:25:26;7.10;92.80
53254;DHT22;39148;53.332;6.922;2023-02-15T09:27:52;7.00;93.80
53254;DHT22;39148;53.332;6.922;2023-02-15T09:35:12;7.10;93.80
53254;DHT22;39148;53.332;6.922;2023-02-15T09:37:37;7.00;93.90
53254;DHT22;39148;53.332;6.922;2023-02-15T09:40:04;7.00;93.80
53254;DHT22;39148;53.332;6.922;2023-02-15T09:56:27;7.00;93.00
53254;DHT22;39148;53.332;6.922;2023-02-15T10:15:35;7.00;93.20
53254;DHT22;39148;53.332;6.922;2023-02-15T10:26:34;7.00;93.10
53254;DHT22;39148;53.332;6.922;2023-02-15T10:31:49;7.10;92.70
53254;DHT22;39148;53.332;6.922;2023-02-15T10:50:50;7.20;93.10
53254;DHT22;39148;53.332;6.922;2023-02-15T10:53:28;7.30;93.10
53254;DHT22;39148;53.332;6.922;2023-02-15T11:07:06;7.30;94.00
53254;DHT22;39148;53.332;6.922;2023-02-15T11:09:41;7.30;93.90
53254;DHT22;39148;53.332;6.922;2023-02-15T11:12:11;7.30;92.90
53254;DHT22;39148;53.332;6.922;2023-02-15T11:19:53;7.30;92.90
53254;DHT22;39148;53.332;6.922;2023-02-15T11:24:46;7.50;92.80
53254;DHT22;39148;53.332;6.922;2023-02-15T11:27:16;7.50;93.70
53254;DHT22;39148;53.332;6.922;2023-02-15T11:32:32;7.50;92.90
53254;DHT22;39148;53.332;6.922;2023-02-15T11:58:43;7.80;92.50
53254;DHT22;39148;53.332;6.922;2023-02-15T12:09:06;7.70;92.90
53254;DHT22;39148;53.332;6.922;2023-02-15T12:11:39;7.80;92.70
53254;DHT22;39148;53.332;6.922;2023-02-15T12:16:44;7.80;92.90
53254;DHT22;39148;53.332;6.922;2023-02-15T12:19:28;7.80;92.90
53254;DHT22;39148;53.332;6.922;2023-02-15T12:29:27;8.00;92.80
53254;DHT22;39148;53.332;6.922;2023-02-15T12:31:54;7.90;93.60
53254;DHT22;39148;53.332;6.922;2023-02-15T12:34:28;7.90;92.90
53254;DHT22;39148;53.332;6.922;2023-02-15T12:47:18;8.10;93.00
53254;DHT22;39148;53.332;6.922;2023-02-15T12:49:45;8.10;93.70
53254;DHT22;39148;53.332;6.922;2023-02-15T12:54:54;8.10;93.60
53254;DHT22;39148;53.332;6.922;2023-02-15T12:57:29;8.10;92.70
53254;DHT22;39148;53.332;6.922;2023-02-15T13:02:40;8.20;92.40
53254;DHT22;39148;53.332;6.922;2023-02-15T13:10:21;8.40;92.90
53254;DHT22;39148;53.332;6.922;2023-02-15T13:20:22;8.40;93.70
53254;DHT22;39148;53.332;6.922;2023-02-15T13:22:51;8.50;93.80
53254;DHT22;39148;53.332;6.922;2023-02-15T13:25:21;8.50;92.90
53254;DHT22;39148;53.332;6.922;2023-02-15T13:30:38;8.60;93.00
53254;DHT22;39148;53.332;6.922;2023-02-15T13:52:23;8.80;93.90
53254;DHT22;39148;53.332;6.922;2023-02-15T14:07:53;9.00;93.90
53254;DHT22;39148;53.332;6.922;2023-02-15T14:10:47;9.10;92.80
53254;DHT22;39148;53.332;6.922;2023-02-15T14:24:31;9.20;92.80
53254;DHT22;39148;53.332;6.922;2023-02-15T14:30:29;9.20;93.20
53254;DHT22;39148;53.332;6.922;2023-02-15T14:32:55;9.30;93.70
53254;DHT22;39148;53.332;6.922;2023-02-15T14:35:27;9.30;93.90
53254;DHT22;39148;53.332;6.922;2023-02-15T14:40:45;9.50;92.90
53254;DHT22;39148;53.332;6.922;2023-02-15T14:43:30;9.40;93.70
53254;DHT22;39148;53.332;6.922;2023-02-15T15:01:09;9.60;93.00
53254;DHT22;39148;53.332;6.922;2023-02-15T15:03:36;9.70;93.50
53254;DHT22;39148;53.332;6.922;2023-02-15T15:06:03;9.60;92.90
53254;DHT22;39148;53.332;6.922;2023-02-15T15:08:40;9.60;93.80
53254;DHT22;39148;53.332;6.922;2023-02-15T15:13:57;9.70;94.00
53254;DHT22;39148;53.332;6.922;2023-02-15T15:19:12;9.80;93.90
53254;DHT22;39148;53.332;6.922;2023-02-15T15:32:44;9.90;93.00
53254;DHT22;39148;53.332;6.922;2023-02-15T15:54:23;10.00;93.80
53254;DHT22;39148;53.332;6.922;2023-02-15T15:56:53;10.00;93.80
53254;DHT22;39148;53.332;6.922;2023-02-15T15:59:28;10.10;92.90
53254;DHT22;39148;53.332;6.922;2023-02-15T16:04:30;10.10;92.90
53254;DHT22;39148;53.332;6.922;2023-02-15T16:06:57;10.00;93.70
53254;DHT22;39148;53.332;6.922;2023-02-15T16:09:26;10.10;93.70
53254;DHT22;39148;53.332;6.922;2023-02-15T16:11:59;10.10;92.30
53254;DHT22;39148;53.332;6.922;2023-02-15T16:14:38;10.20;92.60
53254;DHT22;39148;53.332;6.922;2023-02-15T16:17:12;10.30;93.60
53254;DHT22;39148;53.332;6.922;2023-02-15T16:19:41;10.20;92.90
53254;DHT22;39148;53.332;6.922;2023-02-15T16:22:16;10.10;92.20
53254;DHT22;39148;53.332;6.922;2023-02-15T16:25:41;10.20;92.20
53254;DHT22;39148;53.332;6.922;2023-02-15T16:35:14;10.30;92.70
53254;DHT22;39148;53.332;6.922;2023-02-15T16:40:14;10.20;93.60
53254;DHT22;39148;53.332;6.922;2023-02-15T16:42:52;10.40;93.20
53254;DHT22;39148;53.332;6.922;2023-02-15T16:45:22;10.40;92.70
53254;DHT22;39148;53.332;6.922;2023-02-15T16:47:54;10.30;92.60
53254;DHT22;39148;53.332;6.922;2023-02-15T16:50:40;10.40;92.80
53254;DHT22;39148;53.332;6.922;2023-02-15T16:53:18;10.20;92.60
53254;DHT22;39148;53.332;6.922;2023-02-15T16:55:50;10.30;92.60
53254;DHT22;39148;53.332;6.922;2023-02-15T16:58:17;10.40;92.50
53254;DHT22;39148;53.332;6.922;2023-02-15T17:05:50;10.50;92.10
53254;DHT22;39148;53.332;6.922;2023-02-15T17:08:41;10.30;92.10
53254;DHT22;39148;53.332;6.922;2023-02-15T17:11:19;10.30;93.40
53254;DHT22;39148;53.332;6.922;2023-02-15T17:19:00;10.50;92.50
53254;DHT22;39148;53.332;6.922;2023-02-15T17:21:33;10.40;92.70
53254;DHT22;39148;53.332;6.922;2023-02-15T17:24:02;10.40;92.60
53254;DHT22;39148;53.332;6.922;2023-02-15T17:26:34;10.40;93.50
53254;DHT22;39148;53.332;6.922;2023-02-15T17:31:37;10.50;93.50
53254;DHT22;39148;53.332;6.922;2023-02-15T17:36:31;10.60;92.60
53254;DHT22;39148;53.332;6.922;2023-02-15T17:41:30;10.50;92.50
53254;DHT22;39148;53.332;6.922;2023-02-15T17:43:56;10.40;93.50
53254;DHT22;39148;53.332;6.922;2023-02-15T17:48:53;10.50;92.60
53254;DHT22;39148;53.332;6.922;2023-02-15T17:53:48;10.40;93.50
53254;DHT22;39148;53.332;6.922;2023-02-15T17:56:33;10.50;93.40
53254;DHT22;39148;53.332;6.922;2023-02-15T17:58:59;10.50;93.50
53254;DHT22;39148;53.332;6.922;2023-02-15T18:04:12;10.50;93.50
53254;DHT22;39148;53.332;6.922;2023-02-15T18:06:57;10.40;93.50
53254;DHT22;39148;53.332;6.922;2023-02-15T18:12:31;10.50;92.60
53254;DHT22;39148;53.332;6.922;2023-02-15T18:14:58;10.30;92.50
53254;DHT22;39148;53.332;6.922;2023-02-15T18:17:30;10.40;91.90
53254;DHT22;39148;53.332;6.922;2023-02-15T18:27:16;10.50;92.80
53254;DHT22;39148;53.332;6.922;2023-02-15T18:32:21;10.30;92.60
53254;DHT22;39148;53.332;6.922;2023-02-15T18:34:48;10.50;93.30
53254;DHT22;39148;53.332;6.922;2023-02-15T18:37:29;10.40;92.60
53254;DHT22;39148;53.332;6.922;2023-02-15T18:39:56;10.50;93.40
53254;DHT22;39148;53.332;6.922;2023-02-15T18:42:33;10.30;93.00
53254;DHT22;39148;53.332;6.922;2023-02-15T18:45:16;10.20;93.10
53254;DHT22;39148;53.332;6.922;2023-02-15T18:47:44;10.50;93.40
53254;DHT22;39148;53.332;6.922;2023-02-15T18:50:14;10.40;93.40
53254;DHT22;39148;53.332;6.922;2023-02-15T18:52:40;10.40;93.40
53254;DHT22;39148;53.332;6.922;2023-02-15T18:55:26;10.40;92.60
53254;DHT22;39148;53.332;6.922;2023-02-15T18:57:55;10.30;92.50
53254;DHT22;39148;53.332;6.922;2023-02-15T19:00:26;10.40;93.40
53254;DHT22;39148;53.332;6.922;2023-02-15T19:02:55;10.40;93.40
53254;DHT22;39148;53.332;6.922;2023-02-15T19:05:22;10.50;93.50
53254;DHT22;39148;53.332;6.922;2023-02-15T19:07:49;10.30;93.40
53254;DHT22;39148;53.332;6.922;2023-02-15T19:10:18;10.30;93.40
53254;DHT22;39148;53.332;6.922;2023-02-15T19:12:45;10.30;92.90
53254;DHT22;39148;53.332;6.922;2023-02-15T19:15:17;10.30;93.50
53254;DHT22;39148;53.332;6.922;2023-02-15T19:20:18;10.30;92.70
53254;DHT22;39148;53.332;6.922;2023-02-15T19:22:46;10.40;93.50
53254;DHT22;39148;53.332;6.922;2023-02-15T19:25:18;10.30;93.50
53254;DHT22;39148;53.332;6.922;2023-02-15T19:27:44;10.30;92.70
53254;DHT22;39148;53.332;6.922;2023-02-15T19:32:44;10.30;93.50
53254;DHT22;39148;53.332;6.922;2023-02-15T19:35:18;10.20;92.70
53254;DHT22;39148;53.332;6.922;2023-02-15T19:37:49;10.40;93.50
53254;DHT22;39148;53.332;6.922;2023-02-15T19:40:20;10.20;93.50
53254;DHT22;39148;53.332;6.922;2023-02-15T19:42:47;10.20;93.50
53254;DHT22;39148;53.332;6.922;2023-02-15T19:45:18;10.30;92.70
53254;DHT22;39148;53.332;6.922;2023-02-15T19:47:44;10.30;93.50
53254;DHT22;39148;53.332;6.922;2023-02-15T19:50:19;10.20;92.70
53254;DHT22;39148;53.332;6.922;2023-02-15T19:52:46;10.30;93.50
53254;DHT22;39148;53.332;6.922;2023-02-15T19:55:25;10.30;93.50
53254;DHT22;39148;53.332;6.922;2023-02-15T20:02:47;10.30;93.50
53254;DHT22;39148;53.332;6.922;2023-02-15T20:05:13;10.20;92.70
53254;DHT22;39148;53.332;6.922;2023-02-15T20:07:39;10.10;93.50
53254;DHT22;39148;53.332;6.922;2023-02-15T20:10:18;10.20;93.50
53254;DHT22;39148;53.332;6.922;2023-02-15T20:17:45;10.10;93.50
53254;DHT22;39148;53.332;6.922;2023-02-15T20:20:11;10.20;92.70
53254;DHT22;39148;53.332;6.922;2023-02-15T20:22:38;10.20;93.50
53254;DHT22;39148;53.332;6.922;2023-02-15T20:25:05;10.00;92.90
53254;DHT22;39148;53.332;6.922;2023-02-15T20:27:30;10.20;93.60
53254;DHT22;39148;53.332;6.922;2023-02-15T20:37:30;10.10;93.40
53254;DHT22;39148;53.332;6.922;2023-02-15T20:39:55;10.20;92.80
53254;DHT22;39148;53.332;6.922;2023-02-15T20:42:21;10.00;93.50
53254;DHT22;39148;53.332;6.922;2023-02-15T20:47:13;10.10;92.80
53254;DHT22;39148;53.332;6.922;2023-02-15T20:52:18;10.10;93.50
53254;DHT22;39148;53.332;6.922;2023-02-15T20:54:47;10.00;93.10
53254;DHT22;39148;53.332;6.922;2023-02-15T20:59:39;10.00;93.50
53254;DHT22;39148;53.332;6.922;2023-02-15T21:02:20;10.10;92.10
53254;DHT22;39148;53.332;6.922;2023-02-15T21:04:48;10.10;93.50
53254;DHT22;39148;53.332;6.922;2023-02-15T21:07:18;10.10;93.40
53254;DHT22;39148;53.332;6.922;2023-02-15T21:09:45;10.10;92.40
53254;DHT22;39148;53.332;6.922;2023-02-15T21:12:16;10.00;92.60
53254;DHT22;39148;53.332;6.922;2023-02-15T21:14:42;10.00;92.70
53254;DHT22;39148;53.332;6.922;2023-02-15T21:17:12;10.00;92.00
53254;DHT22;39148;53.332;6.922;2023-02-15T21:22:05;10.00;93.50
53254;DHT22;39148;53.332;6.922;2023-02-15T21:24:31;10.00;92.70
53254;DHT22;39148;53.332;6.922;2023-02-15T21:27:00;10.10;93.50
53254;DHT22;39148;53.332;6.922;2023-02-15T21:29:28;9.90;92.50
53254;DHT22;39148;53.332;6.922;2023-02-15T21:34:23;10.00;92.70
53254;DHT22;39148;53.332;6.922;2023-02-15T21:36:49;9.90;93.40
53254;DHT22;39148;53.332;6.922;2023-02-15T21:39:20;9.80;93.40
53254;DHT22;39148;53.332;6.922;2023-02-15T21:41:48;10.00;92.60
53254;DHT22;39148;53.332;6.922;2023-02-15T21:44:33;10.10;93.50
53254;DHT22;39148;53.332;6.922;2023-02-15T21:47:18;9.90;93.50
53254;DHT22;39148;53.332;6.922;2023-02-15T21:50:08;10.00;92.60
53254;DHT22;39148;53.332;6.922;2023-02-15T21:53:01;9.80;93.50
53254;DHT22;39148;53.332;6.922;2023-02-15T21:55:27;9.90;93.40
53254;DHT22;39148;53.332;6.922;2023-02-15T21:57:52;9.90;93.50
53254;DHT22;39148;53.332;6.922;2023-02-15T22:00:20;9.90;93.40
53254;DHT22;39148;53.332;6.922;2023-02-15T22:02:47;10.00;93.60
53254;DHT22;39148;53.332;6.922;2023-02-15T22:05:20;10.00;93.50
53254;DHT22;39148;53.332;6.922;2023-02-15T22:07:46;9.90;92.70
53254;DHT22;39148;53.332;6.922;2023-02-15T22:10:12;10.00;92.80
53254;DHT22;39148;53.332;6.922;2023-02-15T22:12:40;10.00;93.40
53254;DHT22;39148;53.332;6.922;2023-02-15T22:15:20;9.90;92.60
53254;DHT22;39148;53.332;6.922;2023-02-15T22:17:47;9.90;92.70
53254;DHT22;39148;53.332;6.922;2023-02-15T22:20:17;9.80;93.40
53254;DHT22;39148;53.332;6.922;2023-02-15T22:22:45;9.90;93.40
53254;DHT22;39148;53.332;6.922;2023-02-15T22:25:13;9.90;92.50
53254;DHT22;39148;53.332;6.922;2023-02-15T22:27:40;9.90;93.40
53254;DHT22;39148;53.332;6.922;2023-02-15T22:30:31;9.90;92.20
53254;DHT22;39148;53.332;6.922;2023-02-15T22:32:58;9.90;93.40
53254;DHT22;39148;53.332;6.922;2023-02-15T22:35:27;9.90;93.40
53254;DHT22;39148;53.332;6.922;2023-02-15T22:37:53;9.80;93.40
53254;DHT22;39148;53.332;6.922;2023-02-15T22:40:20;9.80;93.50
53254;DHT22;39148;53.332;6.922;2023-02-15T22:42:48;9.80;92.50
53254;DHT22;39148;53.332;6.922;2023-02-15T22:45:19;9.80;92.60
53254;DHT22;39148;53.332;6.922;2023-02-15T22:47:46;9.80;92.70
53254;DHT22;39148;53.332;6.922;2023-02-15T22:50:18;9.80;92.60
53254;DHT22;39148;53.332;6.922;2023-02-15T22:52:44;9.90;93.40
53254;DHT22;39148;53.332;6.922;2023-02-15T22:55:13;9.80;93.40
53254;DHT22;39148;53.332;6.922;2023-02-15T22:57:39;9.80;93.40
53254;DHT22;39148;53.332;6.922;2023-02-15T23:00:06;9.70;93.40
53254;DHT22;39148;53.332;6.922;2023-02-15T23:02:32;9.90;93.40
53254;DHT22;39148;53.332;6.922;2023-02-15T23:09:49;9.80;92.60
53254;DHT22;39148;53.332;6.922;2023-02-15T23:12:28;9.80;92.10
53254;DHT22;39148;53.332;6.922;2023-02-15T23:15:14;9.80;93.40
53254;DHT22;39148;53.332;6.922;2023-02-15T23:22:32;9.70;93.40
53254;DHT22;39148;53.332;6.922;2023-02-15T23:24:57;9.90;92.70
53254;DHT22;39148;53.332;6.922;2023-02-15T23:27:23;9.80;92.70
53254;DHT22;39148;53.332;6.922;2023-02-15T23:30:12;9.80;92.50
53254;DHT22;39148;53.332;6.922;2023-02-15T23:32:38;9.90;93.40
53254;DHT22;39148;53.332;6.922;2023-02-15T23:40:13;9.70;92.70
53254;DHT22;39148;53.332;6.922;2023-02-15T23:42:57;9.60;93.40
53254;DHT22;39148;53.332;6.922;2023-02-15T23:45:23;9.80;92.80
53254;DHT22;39148;53.332;6.922;2023-02-15T23:53:00;9.80;93.50
53254;DHT22;39148;53.332;6.922;2023-02-15T23:55:37;9.60;93.50
53254;DHT22;39148;53.332;6.922;2023-02-15T23:58:08;9.60;93.50
